Pagrindinis puslapis
METAR-TAF:

METAR-TAF

Oro uostai :

Grosetas, Italija

platuma: 42-45N, ilguma: 011-04E, Aukštis: 5 m

Dabartinis oras

Ataskaita buvo paskelbta 31 minutes, ne 15:55 UTC
Vėjas 3 kt iš Šiaurės/Šiaurės Rytų
Temperatūra 12°C
Drėgmė 67%
Slėgis 1017 hPa
Matomumas 10 km arba daugiau
Mažai debesys ne aukštis 2000 ft
Išsisklaidę debesys ne aukštis 3000 ft

METAR: LIRS 151555Z 02003KT 9999 FEW020 SCT030 12/06 Q1017 RMK BKN VIS MIN 9999 WIND THR03 02003KT WIND THR21 01004KT BLU

Laikas: 18:26 (16:26 UTC)

Prognozė

Ataskaita buvo paskelbta 2 valandos ir 26 minutes, ne 14:00 UTC
Prognozė galioja nuo 15 metu 15 UTC su 15 metu 24 UTC
Vėjas 8 kt iš Rytų
Matomumas 10 km arba daugiau
Mažai debesys ne aukštis 2000 ft, aukštai iškilę kamuoliniai debesys.
Išsisklaidę debesys ne aukštis 2500 ft
Tikimybė 40% :
Laikinai
nuo 15 metu 15 UTC su 15 metu 17 UTC
Mažai debesys ne aukštis 1800 ft, Liūtiniai kamuoliniai debesys.
Su prošvaistėmis ne aukštis 2000 ft
lietus

TAF: LIRS 151400Z 1515/1524 08008KT 9999 FEW020TCU SCT025 PROB40 TEMPO 1515/1517 RA FEW018CB BKN020

Orai ataskaitas ir orų prognozės (METAR, TAF).

turimą stotys yra geltonos ir raudonos taškus žemėlapyje.

Perkelti pele per norėdami pamatyti stoties vardą.

Tada spustelėkite, norėdami matyti oro stebėjimo ir prognozės.

Norėdami pakeisti žemėlapį: spustelėkite ant žalios mygtukų su juodo kryžiaus žemyn,; žalią mygtuką su brūkšneliu, jei norite nutolinti; arba žalių rodyklių gretimoms žemėlapius.


METAR-TAF: